sensor_id;sensor_type;location;lat;lon;timestamp;P1;durP1;ratioP1;P2;durP2;ratioP2
35376;SDS011;21480;51.642;4.834;2022-07-06T00:01:46;118.67;;;109.87;;
35376;SDS011;21480;51.642;4.834;2022-07-06T00:04:13;118.67;;;109.90;;
35376;SDS011;21480;51.642;4.834;2022-07-06T00:06:39;120.33;;;111.40;;
35376;SDS011;21480;51.642;4.834;2022-07-06T00:09:05;119.20;;;110.40;;
35376;SDS011;21480;51.642;4.834;2022-07-06T00:11:31;119.60;;;110.87;;
35376;SDS011;21480;51.642;4.834;2022-07-06T00:13:57;117.60;;;108.97;;
35376;SDS011;21480;51.642;4.834;2022-07-06T00:16:23;117.70;;;108.80;;
35376;SDS011;21480;51.642;4.834;2022-07-06T00:18:49;118.70;;;109.97;;
35376;SDS011;21480;51.642;4.834;2022-07-06T00:21:16;118.63;;;109.60;;
35376;SDS011;21480;51.642;4.834;2022-07-06T00:23:43;117.97;;;109.47;;
35376;SDS011;21480;51.642;4.834;2022-07-06T00:26:09;117.73;;;109.00;;
35376;SDS011;21480;51.642;4.834;2022-07-06T00:28:35;119.27;;;110.57;;
35376;SDS011;21480;51.642;4.834;2022-07-06T00:31:01;117.80;;;109.13;;
35376;SDS011;21480;51.642;4.834;2022-07-06T00:33:27;118.23;;;109.43;;
35376;SDS011;21480;51.642;4.834;2022-07-06T00:35:53;119.90;;;111.10;;
35376;SDS011;21480;51.642;4.834;2022-07-06T00:38:18;118.97;;;110.07;;
35376;SDS011;21480;51.642;4.834;2022-07-06T00:40:44;121.90;;;112.70;;
35376;SDS011;21480;51.642;4.834;2022-07-06T00:43:10;119.97;;;110.97;;
35376;SDS011;21480;51.642;4.834;2022-07-06T00:45:35;118.80;;;110.20;;
35376;SDS011;21480;51.642;4.834;2022-07-06T00:48:01;118.50;;;109.73;;
35376;SDS011;21480;51.642;4.834;2022-07-06T00:50:27;119.23;;;110.23;;
35376;SDS011;21480;51.642;4.834;2022-07-06T00:52:59;117.80;;;109.13;;
35376;SDS011;21480;51.642;4.834;2022-07-06T00:55:26;118.33;;;109.53;;
35376;SDS011;21480;51.642;4.834;2022-07-06T00:57:55;118.33;;;109.63;;
35376;SDS011;21480;51.642;4.834;2022-07-06T01:00:22;118.60;;;109.70;;
35376;SDS011;21480;51.642;4.834;2022-07-06T01:02:49;119.93;;;111.23;;
35376;SDS011;21480;51.642;4.834;2022-07-06T01:05:16;118.20;;;109.23;;
35376;SDS011;21480;51.642;4.834;2022-07-06T01:07:43;119.07;;;110.20;;
35376;SDS011;21480;51.642;4.834;2022-07-06T01:10:10;119.27;;;110.37;;
35376;SDS011;21480;51.642;4.834;2022-07-06T01:12:37;118.00;;;109.30;;
35376;SDS011;21480;51.642;4.834;2022-07-06T01:15:05;118.30;;;109.57;;
35376;SDS011;21480;51.642;4.834;2022-07-06T01:17:33;119.43;;;110.63;;
35376;SDS011;21480;51.642;4.834;2022-07-06T01:20:13;120.20;;;111.30;;
35376;SDS011;21480;51.642;4.834;2022-07-06T01:22:44;118.70;;;110.00;;
35376;SDS011;21480;51.642;4.834;2022-07-06T01:25:11;119.03;;;110.20;;
35376;SDS011;21480;51.642;4.834;2022-07-06T01:27:38;118.87;;;109.87;;
35376;SDS011;21480;51.642;4.834;2022-07-06T01:30:11;118.23;;;109.53;;
35376;SDS011;21480;51.642;4.834;2022-07-06T01:32:40;120.20;;;111.10;;
35376;SDS011;21480;51.642;4.834;2022-07-06T01:35:07;118.47;;;109.57;;
35376;SDS011;21480;51.642;4.834;2022-07-06T01:37:34;119.50;;;110.70;;
35376;SDS011;21480;51.642;4.834;2022-07-06T01:40:00;118.73;;;109.93;;
35376;SDS011;21480;51.642;4.834;2022-07-06T01:42:27;119.17;;;109.93;;
35376;SDS011;21480;51.642;4.834;2022-07-06T01:44:53;119.90;;;111.10;;
35376;SDS011;21480;51.642;4.834;2022-07-06T01:47:19;120.87;;;111.47;;
35376;SDS011;21480;51.642;4.834;2022-07-06T01:49:45;120.13;;;111.27;;
35376;SDS011;21480;51.642;4.834;2022-07-06T01:52:10;119.20;;;110.13;;
35376;SDS011;21480;51.642;4.834;2022-07-06T01:54:36;117.43;;;108.63;;
35376;SDS011;21480;51.642;4.834;2022-07-06T01:57:02;118.73;;;110.03;;
35376;SDS011;21480;51.642;4.834;2022-07-06T01:59:28;118.53;;;109.83;;
35376;SDS011;21480;51.642;4.834;2022-07-06T02:01:53;120.73;;;111.60;;
35376;SDS011;21480;51.642;4.834;2022-07-06T02:04:19;119.17;;;110.07;;
35376;SDS011;21480;51.642;4.834;2022-07-06T02:06:45;118.70;;;109.90;;
35376;SDS011;21480;51.642;4.834;2022-07-06T02:09:10;119.03;;;110.07;;
35376;SDS011;21480;51.642;4.834;2022-07-06T02:11:36;119.60;;;110.50;;
35376;SDS011;21480;51.642;4.834;2022-07-06T02:14:02;118.43;;;109.53;;
35376;SDS011;21480;51.642;4.834;2022-07-06T02:16:27;118.07;;;109.27;;
35376;SDS011;21480;51.642;4.834;2022-07-06T02:18:53;119.90;;;110.90;;
35376;SDS011;21480;51.642;4.834;2022-07-06T02:21:19;118.67;;;109.67;;
35376;SDS011;21480;51.642;4.834;2022-07-06T02:23:45;119.83;;;110.83;;
35376;SDS011;21480;51.642;4.834;2022-07-06T02:26:10;118.20;;;109.57;;
35376;SDS011;21480;51.642;4.834;2022-07-06T02:28:36;119.37;;;110.47;;
35376;SDS011;21480;51.642;4.834;2022-07-06T02:31:02;120.40;;;111.60;;
35376;SDS011;21480;51.642;4.834;2022-07-06T02:33:27;120.70;;;111.67;;
35376;SDS011;21480;51.642;4.834;2022-07-06T02:35:53;120.07;;;111.00;;
35376;SDS011;21480;51.642;4.834;2022-07-06T02:38:19;118.07;;;109.37;;
35376;SDS011;21480;51.642;4.834;2022-07-06T02:40:44;118.53;;;109.73;;
35376;SDS011;21480;51.642;4.834;2022-07-06T02:43:13;118.43;;;109.57;;
35376;SDS011;21480;51.642;4.834;2022-07-06T02:45:39;120.07;;;111.07;;
35376;SDS011;21480;51.642;4.834;2022-07-06T02:48:05;118.23;;;109.47;;
35376;SDS011;21480;51.642;4.834;2022-07-06T02:50:30;117.40;;;108.80;;
35376;SDS011;21480;51.642;4.834;2022-07-06T02:52:56;119.33;;;110.53;;
35376;SDS011;21480;51.642;4.834;2022-07-06T02:55:23;119.30;;;109.73;;
35376;SDS011;21480;51.642;4.834;2022-07-06T02:57:49;120.10;;;111.20;;
35376;SDS011;21480;51.642;4.834;2022-07-06T03:00:15;118.40;;;109.60;;
35376;SDS011;21480;51.642;4.834;2022-07-06T03:02:41;118.53;;;109.83;;
35376;SDS011;21480;51.642;4.834;2022-07-06T03:05:07;118.87;;;110.03;;
35376;SDS011;21480;51.642;4.834;2022-07-06T03:07:33;119.73;;;110.83;;
35376;SDS011;21480;51.642;4.834;2022-07-06T03:09:59;121.23;;;112.17;;
35376;SDS011;21480;51.642;4.834;2022-07-06T03:12:24;119.07;;;109.87;;
35376;SDS011;21480;51.642;4.834;2022-07-06T03:14:50;119.27;;;110.23;;
35376;SDS011;21480;51.642;4.834;2022-07-06T03:17:16;119.10;;;110.30;;
35376;SDS011;21480;51.642;4.834;2022-07-06T03:19:41;118.60;;;109.80;;
35376;SDS011;21480;51.642;4.834;2022-07-06T03:22:07;118.40;;;109.60;;
35376;SDS011;21480;51.642;4.834;2022-07-06T03:24:33;119.07;;;110.27;;
35376;SDS011;21480;51.642;4.834;2022-07-06T03:26:59;119.13;;;110.43;;
35376;SDS011;21480;51.642;4.834;2022-07-06T03:29:24;119.17;;;110.37;;
35376;SDS011;21480;51.642;4.834;2022-07-06T03:31:50;119.33;;;110.50;;
35376;SDS011;21480;51.642;4.834;2022-07-06T03:34:16;118.50;;;109.80;;
35376;SDS011;21480;51.642;4.834;2022-07-06T03:36:41;119.70;;;110.90;;
35376;SDS011;21480;51.642;4.834;2022-07-06T03:39:07;120.30;;;111.37;;
35376;SDS011;21480;51.642;4.834;2022-07-06T03:41:33;119.17;;;110.20;;
35376;SDS011;21480;51.642;4.834;2022-07-06T03:43:58;119.40;;;110.20;;
35376;SDS011;21480;51.642;4.834;2022-07-06T03:46:24;119.33;;;110.27;;
35376;SDS011;21480;51.642;4.834;2022-07-06T03:48:50;120.03;;;111.03;;
35376;SDS011;21480;51.642;4.834;2022-07-06T03:51:16;118.77;;;109.97;;
35376;SDS011;21480;51.642;4.834;2022-07-06T03:53:42;118.80;;;110.07;;
35376;SDS011;21480;51.642;4.834;2022-07-06T03:56:07;120.17;;;111.27;;
35376;SDS011;21480;51.642;4.834;2022-07-06T03:58:52;120.57;;;111.33;;
35376;SDS011;21480;51.642;4.834;2022-07-06T04:01:17;119.03;;;110.33;;
35376;SDS011;21480;51.642;4.834;2022-07-06T04:03:43;119.17;;;109.97;;
35376;SDS011;21480;51.642;4.834;2022-07-06T04:06:09;118.80;;;110.10;;
35376;SDS011;21480;51.642;4.834;2022-07-06T04:08:35;118.23;;;109.53;;
35376;SDS011;21480;51.642;4.834;2022-07-06T04:11:01;119.93;;;111.13;;
35376;SDS011;21480;51.642;4.834;2022-07-06T04:13:27;119.47;;;110.40;;
35376;SDS011;21480;51.642;4.834;2022-07-06T04:15:52;117.90;;;109.30;;
35376;SDS011;21480;51.642;4.834;2022-07-06T04:18:20;120.03;;;111.23;;
35376;SDS011;21480;51.642;4.834;2022-07-06T04:20:46;119.27;;;110.37;;
35376;SDS011;21480;51.642;4.834;2022-07-06T04:23:12;118.80;;;109.97;;
35376;SDS011;21480;51.642;4.834;2022-07-06T04:25:37;119.63;;;110.83;;
35376;SDS011;21480;51.642;4.834;2022-07-06T04:28:03;119.07;;;110.37;;
35376;SDS011;21480;51.642;4.834;2022-07-06T04:30:29;119.17;;;110.27;;
35376;SDS011;21480;51.642;4.834;2022-07-06T04:32:55;119.37;;;110.63;;
35376;SDS011;21480;51.642;4.834;2022-07-06T04:35:21;118.97;;;110.07;;
35376;SDS011;21480;51.642;4.834;2022-07-06T04:37:47;118.17;;;109.50;;
35376;SDS011;21480;51.642;4.834;2022-07-06T04:40:13;118.47;;;109.47;;
35376;SDS011;21480;51.642;4.834;2022-07-06T04:42:39;118.57;;;109.97;;
35376;SDS011;21480;51.642;4.834;2022-07-06T04:45:05;118.13;;;109.53;;
35376;SDS011;21480;51.642;4.834;2022-07-06T04:47:31;118.47;;;109.87;;
35376;SDS011;21480;51.642;4.834;2022-07-06T04:49:57;118.67;;;110.07;;
35376;SDS011;21480;51.642;4.834;2022-07-06T04:52:23;116.03;;;107.73;;
35376;SDS011;21480;51.642;4.834;2022-07-06T04:54:49;117.03;;;108.53;;
35376;SDS011;21480;51.642;4.834;2022-07-06T04:57:14;118.83;;;110.03;;
35376;SDS011;21480;51.642;4.834;2022-07-06T04:59:40;117.27;;;108.67;;
35376;SDS011;21480;51.642;4.834;2022-07-06T05:02:06;117.77;;;109.23;;
35376;SDS011;21480;51.642;4.834;2022-07-06T05:04:32;117.00;;;108.43;;
35376;SDS011;21480;51.642;4.834;2022-07-06T05:06:57;117.03;;;108.13;;
35376;SDS011;21480;51.642;4.834;2022-07-06T05:09:23;116.20;;;107.90;;
35376;SDS011;21480;51.642;4.834;2022-07-06T05:11:49;116.67;;;108.27;;
35376;SDS011;21480;51.642;4.834;2022-07-06T05:14:15;117.40;;;108.47;;
35376;SDS011;21480;51.642;4.834;2022-07-06T05:16:43;117.93;;;109.37;;
35376;SDS011;21480;51.642;4.834;2022-07-06T05:19:08;118.20;;;109.57;;
35376;SDS011;21480;51.642;4.834;2022-07-06T05:21:34;117.23;;;108.73;;
35376;SDS011;21480;51.642;4.834;2022-07-06T05:24:03;118.23;;;109.77;;
35376;SDS011;21480;51.642;4.834;2022-07-06T05:26:28;116.63;;;108.33;;
35376;SDS011;21480;51.642;4.834;2022-07-06T05:28:54;116.90;;;108.30;;
35376;SDS011;21480;51.642;4.834;2022-07-06T05:31:23;116.70;;;108.40;;
35376;SDS011;21480;51.642;4.834;2022-07-06T05:33:49;116.70;;;108.17;;
35376;SDS011;21480;51.642;4.834;2022-07-06T05:36:14;118.23;;;109.73;;
35376;SDS011;21480;51.642;4.834;2022-07-06T05:38:40;117.87;;;109.07;;
35376;SDS011;21480;51.642;4.834;2022-07-06T05:41:06;117.70;;;109.20;;
35376;SDS011;21480;51.642;4.834;2022-07-06T05:43:31;116.53;;;108.10;;
35376;SDS011;21480;51.642;4.834;2022-07-06T05:45:57;116.80;;;108.23;;
35376;SDS011;21480;51.642;4.834;2022-07-06T05:48:23;116.00;;;107.80;;
35376;SDS011;21480;51.642;4.834;2022-07-06T05:51:08;117.07;;;108.63;;
35376;SDS011;21480;51.642;4.834;2022-07-06T05:53:34;118.33;;;109.40;;
35376;SDS011;21480;51.642;4.834;2022-07-06T05:55:59;117.33;;;108.77;;
35376;SDS011;21480;51.642;4.834;2022-07-06T05:58:25;117.87;;;109.30;;
35376;SDS011;21480;51.642;4.834;2022-07-06T06:00:51;118.23;;;109.73;;
35376;SDS011;21480;51.642;4.834;2022-07-06T06:03:16;118.40;;;109.83;;
35376;SDS011;21480;51.642;4.834;2022-07-06T06:05:42;116.23;;;107.93;;
35376;SDS011;21480;51.642;4.834;2022-07-06T06:08:08;116.60;;;108.30;;
35376;SDS011;21480;51.642;4.834;2022-07-06T06:10:34;117.07;;;108.70;;
35376;SDS011;21480;51.642;4.834;2022-07-06T06:12:59;115.77;;;107.67;;
35376;SDS011;21480;51.642;4.834;2022-07-06T06:15:28;116.10;;;107.57;;
35376;SDS011;21480;51.642;4.834;2022-07-06T06:17:54;115.70;;;107.50;;
35376;SDS011;21480;51.642;4.834;2022-07-06T06:20:20;116.13;;;108.03;;
35376;SDS011;21480;51.642;4.834;2022-07-06T06:22:50;116.67;;;108.47;;
35376;SDS011;21480;51.642;4.834;2022-07-06T06:25:17;116.47;;;108.23;;
35376;SDS011;21480;51.642;4.834;2022-07-06T06:27:45;117.43;;;108.93;;
35376;SDS011;21480;51.642;4.834;2022-07-06T06:30:11;116.20;;;108.10;;
35376;SDS011;21480;51.642;4.834;2022-07-06T06:32:37;115.87;;;107.73;;
35376;SDS011;21480;51.642;4.834;2022-07-06T06:35:03;116.37;;;108.20;;
35376;SDS011;21480;51.642;4.834;2022-07-06T06:37:30;116.57;;;108.07;;
35376;SDS011;21480;51.642;4.834;2022-07-06T06:39:56;116.57;;;108.40;;
35376;SDS011;21480;51.642;4.834;2022-07-06T06:42:21;115.90;;;107.77;;
35376;SDS011;21480;51.642;4.834;2022-07-06T06:44:47;115.20;;;107.20;;
35376;SDS011;21480;51.642;4.834;2022-07-06T06:47:13;115.40;;;107.40;;
35376;SDS011;21480;51.642;4.834;2022-07-06T06:49:38;116.60;;;108.40;;
35376;SDS011;21480;51.642;4.834;2022-07-06T06:52:04;114.37;;;106.30;;
35376;SDS011;21480;51.642;4.834;2022-07-06T06:54:30;115.97;;;107.57;;
35376;SDS011;21480;51.642;4.834;2022-07-06T06:56:59;114.57;;;106.60;;
35376;SDS011;21480;51.642;4.834;2022-07-06T06:59:24;115.60;;;107.60;;
35376;SDS011;21480;51.642;4.834;2022-07-06T07:01:50;115.10;;;107.20;;
35376;SDS011;21480;51.642;4.834;2022-07-06T07:04:16;116.80;;;108.47;;
35376;SDS011;21480;51.642;4.834;2022-07-06T07:06:41;115.63;;;107.63;;
35376;SDS011;21480;51.642;4.834;2022-07-06T07:09:07;115.97;;;107.93;;
35376;SDS011;21480;51.642;4.834;2022-07-06T07:11:33;114.90;;;106.87;;
35376;SDS011;21480;51.642;4.834;2022-07-06T07:13:58;115.80;;;107.80;;
35376;SDS011;21480;51.642;4.834;2022-07-06T07:16:25;115.13;;;107.03;;
35376;SDS011;21480;51.642;4.834;2022-07-06T07:18:51;115.40;;;107.37;;
35376;SDS011;21480;51.642;4.834;2022-07-06T07:21:17;115.93;;;107.80;;
35376;SDS011;21480;51.642;4.834;2022-07-06T07:23:43;114.97;;;107.07;;
35376;SDS011;21480;51.642;4.834;2022-07-06T07:26:08;114.80;;;106.97;;
35376;SDS011;21480;51.642;4.834;2022-07-06T07:28:34;115.10;;;107.10;;
35376;SDS011;21480;51.642;4.834;2022-07-06T07:31:00;114.47;;;106.63;;
35376;SDS011;21480;51.642;4.834;2022-07-06T07:33:25;115.50;;;107.50;;
35376;SDS011;21480;51.642;4.834;2022-07-06T07:35:51;115.03;;;107.00;;
35376;SDS011;21480;51.642;4.834;2022-07-06T07:38:17;115.33;;;107.47;;
35376;SDS011;21480;51.642;4.834;2022-07-06T07:40:42;114.67;;;106.87;;
35376;SDS011;21480;51.642;4.834;2022-07-06T07:43:08;113.93;;;106.03;;
35376;SDS011;21480;51.642;4.834;2022-07-06T07:45:38;114.63;;;106.63;;
35376;SDS011;21480;51.642;4.834;2022-07-06T07:48:04;114.83;;;106.93;;
35376;SDS011;21480;51.642;4.834;2022-07-06T07:50:30;114.77;;;106.97;;
35376;SDS011;21480;51.642;4.834;2022-07-06T07:52:56;115.03;;;107.10;;
35376;SDS011;21480;51.642;4.834;2022-07-06T07:55:21;115.43;;;107.53;;
35376;SDS011;21480;51.642;4.834;2022-07-06T07:57:47;113.93;;;106.17;;
35376;SDS011;21480;51.642;4.834;2022-07-06T08:00:13;115.03;;;107.23;;
35376;SDS011;21480;51.642;4.834;2022-07-06T08:02:39;115.77;;;107.77;;
35376;SDS011;21480;51.642;4.834;2022-07-06T08:05:05;114.30;;;106.50;;
35376;SDS011;21480;51.642;4.834;2022-07-06T08:07:31;115.43;;;107.43;;
35376;SDS011;21480;51.642;4.834;2022-07-06T08:09:57;115.07;;;107.23;;
35376;SDS011;21480;51.642;4.834;2022-07-06T08:12:23;113.67;;;105.70;;
35376;SDS011;21480;51.642;4.834;2022-07-06T08:14:49;114.97;;;107.10;;
35376;SDS011;21480;51.642;4.834;2022-07-06T08:17:15;114.90;;;107.20;;
35376;SDS011;21480;51.642;4.834;2022-07-06T08:19:40;114.23;;;106.40;;
35376;SDS011;21480;51.642;4.834;2022-07-06T08:22:06;113.57;;;105.97;;
35376;SDS011;21480;51.642;4.834;2022-07-06T08:24:36;114.20;;;106.43;;
35376;SDS011;21480;51.642;4.834;2022-07-06T08:27:02;114.17;;;106.30;;
35376;SDS011;21480;51.642;4.834;2022-07-06T08:29:28;113.97;;;106.30;;
35376;SDS011;21480;51.642;4.834;2022-07-06T08:31:55;114.23;;;106.53;;
35376;SDS011;21480;51.642;4.834;2022-07-06T08:34:20;113.47;;;105.87;;
35376;SDS011;21480;51.642;4.834;2022-07-06T08:36:46;114.37;;;106.60;;
35376;SDS011;21480;51.642;4.834;2022-07-06T08:39:12;113.63;;;106.07;;
35376;SDS011;21480;51.642;4.834;2022-07-06T08:41:38;113.43;;;105.93;;
35376;SDS011;21480;51.642;4.834;2022-07-06T08:44:07;113.97;;;106.17;;
35376;SDS011;21480;51.642;4.834;2022-07-06T08:46:35;113.73;;;106.03;;
35376;SDS011;21480;51.642;4.834;2022-07-06T08:49:03;113.20;;;105.77;;
35376;SDS011;21480;51.642;4.834;2022-07-06T08:51:31;112.77;;;105.37;;
35376;SDS011;21480;51.642;4.834;2022-07-06T08:53:57;112.47;;;105.07;;
35376;SDS011;21480;51.642;4.834;2022-07-06T08:56:23;113.87;;;106.37;;
35376;SDS011;21480;51.642;4.834;2022-07-06T08:58:50;113.13;;;105.50;;
35376;SDS011;21480;51.642;4.834;2022-07-06T09:01:19;112.73;;;105.23;;
35376;SDS011;21480;51.642;4.834;2022-07-06T09:03:45;112.33;;;105.00;;
35376;SDS011;21480;51.642;4.834;2022-07-06T09:06:13;112.60;;;105.30;;
35376;SDS011;21480;51.642;4.834;2022-07-06T09:08:52;110.60;;;103.40;;
35376;SDS011;21480;51.642;4.834;2022-07-06T09:11:21;113.37;;;105.90;;
35376;SDS011;21480;51.642;4.834;2022-07-06T09:13:47;112.70;;;105.40;;
35376;SDS011;21480;51.642;4.834;2022-07-06T09:16:14;112.13;;;104.83;;
35376;SDS011;21480;51.642;4.834;2022-07-06T09:18:43;112.07;;;104.77;;
35376;SDS011;21480;51.642;4.834;2022-07-06T09:21:10;112.57;;;105.37;;
35376;SDS011;21480;51.642;4.834;2022-07-06T09:23:36;111.90;;;104.60;;
35376;SDS011;21480;51.642;4.834;2022-07-06T09:26:03;111.47;;;104.27;;
35376;SDS011;21480;51.642;4.834;2022-07-06T09:28:40;111.97;;;104.77;;
35376;SDS011;21480;51.642;4.834;2022-07-06T09:31:10;110.70;;;103.53;;
35376;SDS011;21480;51.642;4.834;2022-07-06T09:33:35;111.87;;;104.60;;
35376;SDS011;21480;51.642;4.834;2022-07-06T09:36:02;111.33;;;103.97;;
35376;SDS011;21480;51.642;4.834;2022-07-06T09:38:28;110.93;;;103.60;;
35376;SDS011;21480;51.642;4.834;2022-07-06T09:40:54;111.07;;;103.97;;
35376;SDS011;21480;51.642;4.834;2022-07-06T09:43:23;110.90;;;103.60;;
35376;SDS011;21480;51.642;4.834;2022-07-06T09:45:50;111.47;;;103.70;;
35376;SDS011;21480;51.642;4.834;2022-07-06T09:48:18;110.90;;;103.80;;
35376;SDS011;21480;51.642;4.834;2022-07-06T09:50:49;111.70;;;104.40;;
35376;SDS011;21480;51.642;4.834;2022-07-06T09:53:17;111.47;;;104.27;;
35376;SDS011;21480;51.642;4.834;2022-07-06T09:55:43;111.03;;;103.93;;
35376;SDS011;21480;51.642;4.834;2022-07-06T09:58:11;110.73;;;103.37;;
35376;SDS011;21480;51.642;4.834;2022-07-06T10:00:36;111.53;;;104.23;;
35376;SDS011;21480;51.642;4.834;2022-07-06T10:03:03;110.23;;;103.17;;
35376;SDS011;21480;51.642;4.834;2022-07-06T10:05:30;111.57;;;104.27;;
35376;SDS011;21480;51.642;4.834;2022-07-06T10:08:00;112.47;;;105.17;;
35376;SDS011;21480;51.642;4.834;2022-07-06T10:10:29;111.67;;;104.60;;
35376;SDS011;21480;51.642;4.834;2022-07-06T10:12:55;111.40;;;104.23;;
35376;SDS011;21480;51.642;4.834;2022-07-06T10:15:22;113.13;;;105.63;;
35376;SDS011;21480;51.642;4.834;2022-07-06T10:17:50;112.53;;;105.33;;
35376;SDS011;21480;51.642;4.834;2022-07-06T10:20:16;110.93;;;103.83;;
35376;SDS011;21480;51.642;4.834;2022-07-06T10:22:49;111.73;;;104.63;;
35376;SDS011;21480;51.642;4.834;2022-07-06T10:25:16;112.00;;;104.67;;
35376;SDS011;21480;51.642;4.834;2022-07-06T10:27:43;111.13;;;104.13;;
35376;SDS011;21480;51.642;4.834;2022-07-06T10:30:10;111.77;;;104.60;;
35376;SDS011;21480;51.642;4.834;2022-07-06T10:32:37;111.97;;;104.67;;
35376;SDS011;21480;51.642;4.834;2022-07-06T10:35:05;111.33;;;104.23;;
35376;SDS011;21480;51.642;4.834;2022-07-06T10:37:31;111.20;;;104.00;;
35376;SDS011;21480;51.642;4.834;2022-07-06T10:39:59;111.00;;;103.90;;
35376;SDS011;21480;51.642;4.834;2022-07-06T10:43:16;111.40;;;104.03;;
35376;SDS011;21480;51.642;4.834;2022-07-06T10:50:40;112.00;;;104.87;;
35376;SDS011;21480;51.642;4.834;2022-07-06T10:53:20;112.07;;;104.87;;
35376;SDS011;21480;51.642;4.834;2022-07-06T10:55:47;111.90;;;104.63;;
35376;SDS011;21480;51.642;4.834;2022-07-06T11:01:19;111.20;;;103.97;;
35376;SDS011;21480;51.642;4.834;2022-07-06T11:06:24;112.07;;;104.77;;
35376;SDS011;21480;51.642;4.834;2022-07-06T11:09:04;111.77;;;104.50;;
35376;SDS011;21480;51.642;4.834;2022-07-06T11:14:01;111.70;;;104.50;;
35376;SDS011;21480;51.642;4.834;2022-07-06T11:16:36;112.87;;;105.37;;
35376;SDS011;21480;51.642;4.834;2022-07-06T11:19:11;112.40;;;105.00;;
35376;SDS011;21480;51.642;4.834;2022-07-06T11:21:52;111.67;;;104.47;;
35376;SDS011;21480;51.642;4.834;2022-07-06T11:24:23;112.07;;;104.77;;
35376;SDS011;21480;51.642;4.834;2022-07-06T11:26:51;112.57;;;105.03;;
35376;SDS011;21480;51.642;4.834;2022-07-06T11:29:18;111.93;;;104.60;;
35376;SDS011;21480;51.642;4.834;2022-07-06T11:31:47;112.27;;;104.77;;
35376;SDS011;21480;51.642;4.834;2022-07-06T11:34:17;112.00;;;104.57;;
35376;SDS011;21480;51.642;4.834;2022-07-06T11:36:49;112.23;;;104.93;;
35376;SDS011;21480;51.642;4.834;2022-07-06T11:39:19;111.87;;;104.50;;
35376;SDS011;21480;51.642;4.834;2022-07-06T11:41:45;113.17;;;105.53;;
35376;SDS011;21480;51.642;4.834;2022-07-06T11:44:11;112.37;;;104.97;;
35376;SDS011;21480;51.642;4.834;2022-07-06T11:46:36;113.13;;;105.73;;
35376;SDS011;21480;51.642;4.834;2022-07-06T11:49:06;111.43;;;103.87;;
35376;SDS011;21480;51.642;4.834;2022-07-06T11:51:34;112.37;;;105.07;;
35376;SDS011;21480;51.642;4.834;2022-07-06T11:54:09;111.77;;;104.33;;
35376;SDS011;21480;51.642;4.834;2022-07-06T11:56:45;112.50;;;105.20;;
35376;SDS011;21480;51.642;4.834;2022-07-06T11:59:15;111.50;;;104.30;;
35376;SDS011;21480;51.642;4.834;2022-07-06T12:01:42;113.13;;;105.27;;
35376;SDS011;21480;51.642;4.834;2022-07-06T12:04:09;113.70;;;106.30;;
35376;SDS011;21480;51.642;4.834;2022-07-06T12:06:35;113.23;;;105.70;;
35376;SDS011;21480;51.642;4.834;2022-07-06T12:09:01;113.70;;;106.07;;
35376;SDS011;21480;51.642;4.834;2022-07-06T12:11:34;112.90;;;105.30;;
35376;SDS011;21480;51.642;4.834;2022-07-06T12:14:02;112.30;;;104.90;;
35376;SDS011;21480;51.642;4.834;2022-07-06T12:16:37;113.33;;;106.03;;
35376;SDS011;21480;51.642;4.834;2022-07-06T12:19:05;112.13;;;104.63;;
35376;SDS011;21480;51.642;4.834;2022-07-06T12:21:32;111.93;;;104.60;;
35376;SDS011;21480;51.642;4.834;2022-07-06T12:24:00;111.53;;;104.33;;
35376;SDS011;21480;51.642;4.834;2022-07-06T12:26:26;111.13;;;103.83;;
35376;SDS011;21480;51.642;4.834;2022-07-06T12:28:59;111.87;;;104.57;;
35376;SDS011;21480;51.642;4.834;2022-07-06T12:31:36;111.97;;;104.60;;
35376;SDS011;21480;51.642;4.834;2022-07-06T12:34:03;111.13;;;103.93;;
35376;SDS011;21480;51.642;4.834;2022-07-06T12:36:30;110.77;;;103.47;;
35376;SDS011;21480;51.642;4.834;2022-07-06T12:38:56;111.33;;;104.13;;
35376;SDS011;21480;51.642;4.834;2022-07-06T12:43:59;110.75;;;103.70;;
35376;SDS011;21480;51.642;4.834;2022-07-06T12:46:33;110.53;;;103.55;;
35376;SDS011;21480;51.642;4.834;2022-07-06T12:49:00;109.90;;;103.00;;
35376;SDS011;21480;51.642;4.834;2022-07-06T12:51:27;110.35;;;103.18;;
35376;SDS011;21480;51.642;4.834;2022-07-06T12:54:11;109.97;;;102.88;;
35376;SDS011;21480;51.642;4.834;2022-07-06T12:56:55;110.72;;;103.63;;
35376;SDS011;21480;51.642;4.834;2022-07-06T12:59:35;111.13;;;104.22;;
35376;SDS011;21480;51.642;4.834;2022-07-06T13:02:07;108.85;;;102.15;;
35376;SDS011;21480;51.642;4.834;2022-07-06T13:04:37;110.05;;;103.10;;
35376;SDS011;21480;51.642;4.834;2022-07-06T13:07:03;110.53;;;103.63;;
35376;SDS011;21480;51.642;4.834;2022-07-06T13:09:30;109.65;;;102.82;;
35376;SDS011;21480;51.642;4.834;2022-07-06T13:11:55;109.43;;;102.57;;
35376;SDS011;21480;51.642;4.834;2022-07-06T13:14:21;110.03;;;103.10;;
35376;SDS011;21480;51.642;4.834;2022-07-06T13:16:47;110.75;;;103.88;;
35376;SDS011;21480;51.642;4.834;2022-07-06T13:19:14;110.00;;;103.05;;
35376;SDS011;21480;51.642;4.834;2022-07-06T13:21:40;110.63;;;103.72;;
35376;SDS011;21480;51.642;4.834;2022-07-06T13:24:06;110.43;;;103.63;;
35376;SDS011;21480;51.642;4.834;2022-07-06T13:26:32;111.32;;;104.20;;
35376;SDS011;21480;51.642;4.834;2022-07-06T13:28:59;110.95;;;103.95;;
35376;SDS011;21480;51.642;4.834;2022-07-06T13:31:26;110.38;;;103.50;;
35376;SDS011;21480;51.642;4.834;2022-07-06T13:33:52;111.65;;;104.30;;
35376;SDS011;21480;51.642;4.834;2022-07-06T13:36:19;111.22;;;104.07;;
35376;SDS011;21480;51.642;4.834;2022-07-06T13:38:44;111.60;;;104.80;;
35376;SDS011;21480;51.642;4.834;2022-07-06T13:41:10;110.82;;;103.93;;
35376;SDS011;21480;51.642;4.834;2022-07-06T13:43:35;110.30;;;103.50;;
35376;SDS011;21480;51.642;4.834;2022-07-06T13:46:02;109.68;;;102.78;;
35376;SDS011;21480;51.642;4.834;2022-07-06T13:48:29;109.78;;;102.93;;
35376;SDS011;21480;51.642;4.834;2022-07-06T13:50:56;111.30;;;104.32;;
35376;SDS011;21480;51.642;4.834;2022-07-06T13:53:22;110.32;;;103.43;;
35376;SDS011;21480;51.642;4.834;2022-07-06T13:55:48;112.10;;;105.22;;
35376;SDS011;21480;51.642;4.834;2022-07-06T13:58:14;109.97;;;102.97;;
35376;SDS011;21480;51.642;4.834;2022-07-06T14:00:40;110.70;;;103.78;;
35376;SDS011;21480;51.642;4.834;2022-07-06T14:03:06;110.03;;;103.15;;
35376;SDS011;21480;51.642;4.834;2022-07-06T14:05:33;110.65;;;103.75;;
35376;SDS011;21480;51.642;4.834;2022-07-06T14:07:59;110.15;;;103.22;;
35376;SDS011;21480;51.642;4.834;2022-07-06T14:10:24;110.03;;;102.68;;
35376;SDS011;21480;51.642;4.834;2022-07-06T14:12:53;108.57;;;101.88;;